createdAt,value
2018-07-21T00:00:11.239Z,20.60
2018-07-21T00:02:40.573Z,20.50
2018-07-21T00:05:09.329Z,20.50
2018-07-21T00:07:38.151Z,20.50
2018-07-21T00:10:07.024Z,20.40
2018-07-21T00:12:35.846Z,20.40
2018-07-21T00:15:04.676Z,20.50
2018-07-21T00:17:33.478Z,20.50
2018-07-21T00:20:02.362Z,20.50
2018-07-21T00:22:31.178Z,20.50
2018-07-21T00:25:00.018Z,20.50
2018-07-21T00:27:28.886Z,20.50
2018-07-21T00:29:57.651Z,20.40
2018-07-21T00:32:26.447Z,20.40
2018-07-21T00:34:55.263Z,20.40
2018-07-21T00:37:24.029Z,20.40
2018-07-21T00:39:52.875Z,20.40
2018-07-21T00:42:21.646Z,20.30
2018-07-21T00:44:50.434Z,20.30
2018-07-21T00:47:19.313Z,20.30
2018-07-21T00:49:48.137Z,20.30
2018-07-21T00:52:16.987Z,20.30
2018-07-21T00:54:45.858Z,20.30
2018-07-21T00:57:14.662Z,20.30
2018-07-21T00:59:43.388Z,20.30
2018-07-21T01:02:12.278Z,20.30
2018-07-21T01:04:41.151Z,20.30
2018-07-21T01:07:09.975Z,20.30
2018-07-21T01:09:38.761Z,20.30
2018-07-21T01:12:07.562Z,20.30
2018-07-21T01:14:36.385Z,20.40
2018-07-21T01:17:05.201Z,20.40
2018-07-21T01:19:34.032Z,20.40
2018-07-21T01:22:02.876Z,20.30
2018-07-21T01:24:31.676Z,20.30
2018-07-21T01:27:00.486Z,20.30
2018-07-21T01:29:29.259Z,20.20
2018-07-21T01:31:58.050Z,20.30
2018-07-21T01:34:26.768Z,20.30
2018-07-21T01:36:55.570Z,20.20
2018-07-21T01:39:24.406Z,20.20
2018-07-21T01:41:53.158Z,20.20
2018-07-21T01:44:22.029Z,20.20
2018-07-21T01:46:50.839Z,20.10
2018-07-21T01:49:19.622Z,20.10
2018-07-21T01:51:48.442Z,20.10
2018-07-21T01:54:17.233Z,20.00
2018-07-21T01:56:46.006Z,20.00
2018-07-21T01:59:14.772Z,20.00
2018-07-21T02:01:43.537Z,20.00
2018-07-21T02:06:40.758Z,20.00
2018-07-21T02:09:10.786Z,20.00
2018-07-21T02:11:39.667Z,19.90
2018-07-21T02:14:08.739Z,19.90
2018-07-21T02:16:37.550Z,19.90
2018-07-21T02:19:06.354Z,19.90
2018-07-21T02:21:35.158Z,19.90
2018-07-21T02:26:32.372Z,20.10
2018-07-21T02:29:01.160Z,20.20
2018-07-21T02:31:29.956Z,20.30
2018-07-21T02:33:58.763Z,20.30
2018-07-21T02:36:27.581Z,20.20
2018-07-21T02:41:24.780Z,20.20
2018-07-21T02:43:53.583Z,20.30
2018-07-21T02:46:22.426Z,20.40
2018-07-21T02:48:51.207Z,20.50
2018-07-21T02:53:48.394Z,20.60
2018-07-21T02:56:17.190Z,20.60
2018-07-21T02:58:45.965Z,20.60
2018-07-21T03:01:14.766Z,20.60
2018-07-21T03:03:43.567Z,20.60
2018-07-21T03:06:12.330Z,20.60
2018-07-21T03:08:41.147Z,20.60
2018-07-21T03:11:09.942Z,20.70
2018-07-21T03:13:38.711Z,20.70
2018-07-21T03:16:07.545Z,20.70
2018-07-21T03:18:36.338Z,20.80
2018-07-21T03:21:05.152Z,20.90
2018-07-21T03:23:33.955Z,20.90
2018-07-21T03:26:02.834Z,21.00
2018-07-21T03:28:31.614Z,21.00
2018-07-21T03:31:00.472Z,21.10
2018-07-21T03:33:29.236Z,21.20
2018-07-21T03:35:58.027Z,21.20
2018-07-21T03:38:26.845Z,21.20
2018-07-21T03:40:55.670Z,21.30
2018-07-21T03:43:24.476Z,21.30
2018-07-21T03:45:53.282Z,21.30
2018-07-21T03:48:22.102Z,21.30
2018-07-21T03:53:19.309Z,21.30
2018-07-21T03:55:48.095Z,21.40
2018-07-21T03:58:16.854Z,21.30
2018-07-21T04:00:45.641Z,21.40
2018-07-21T04:03:14.386Z,21.40
2018-07-21T04:05:43.179Z,21.50
2018-07-21T04:08:11.961Z,21.60
2018-07-21T04:10:40.743Z,21.50
2018-07-21T04:13:09.522Z,21.60
2018-07-21T04:15:38.262Z,21.40
2018-07-21T04:18:07.126Z,21.40
2018-07-21T04:20:35.933Z,21.40
2018-07-21T04:23:04.791Z,21.50
2018-07-21T04:25:33.555Z,21.40
2018-07-21T04:28:02.324Z,21.50
2018-07-21T04:30:31.112Z,21.50
2018-07-21T04:32:59.890Z,21.50
2018-07-21T04:35:28.662Z,21.60
2018-07-21T04:37:57.457Z,21.60
2018-07-21T04:40:26.226Z,21.50
2018-07-21T04:42:55.048Z,21.50
2018-07-21T04:45:23.813Z,21.50
2018-07-21T04:47:52.606Z,21.50
2018-07-21T04:50:21.377Z,21.40
2018-07-21T04:52:50.242Z,21.40
2018-07-21T04:55:19.014Z,21.40
2018-07-21T04:57:47.808Z,21.50
2018-07-21T05:00:16.706Z,21.50
2018-07-21T05:02:45.515Z,21.40
2018-07-21T05:05:14.354Z,21.30
2018-07-21T05:07:43.174Z,21.30
2018-07-21T05:10:11.958Z,21.40
2018-07-21T05:12:40.742Z,21.50
2018-07-21T05:15:09.538Z,21.60
2018-07-21T05:17:38.338Z,21.60
2018-07-21T05:20:07.421Z,21.70
2018-07-21T05:22:36.210Z,21.80
2018-07-21T05:25:05.495Z,21.80
2018-07-21T05:27:34.343Z,21.90
2018-07-21T05:30:03.271Z,22.00
2018-07-21T05:32:32.070Z,22.00
2018-07-21T05:35:00.890Z,22.10
2018-07-21T05:37:29.771Z,22.20
2018-07-21T05:39:58.561Z,22.30
2018-07-21T05:42:27.360Z,22.30
2018-07-21T05:44:56.163Z,22.30
2018-07-21T05:47:24.966Z,22.30
2018-07-21T05:49:53.754Z,22.30
2018-07-21T05:52:22.530Z,22.40
2018-07-21T05:54:51.331Z,22.50
2018-07-21T05:57:20.139Z,22.60
2018-07-21T05:59:48.999Z,22.60
2018-07-21T06:02:17.385Z,22.60
2018-07-21T06:04:46.195Z,22.60
2018-07-21T06:07:14.996Z,22.50
2018-07-21T06:09:43.854Z,22.50
2018-07-21T06:12:12.667Z,22.60
2018-07-21T06:14:41.518Z,22.60
2018-07-21T06:17:10.299Z,22.70
2018-07-21T06:19:39.110Z,22.40
2018-07-21T06:22:14.447Z,22.50
2018-07-21T06:24:43.359Z,22.60
2018-07-21T06:27:12.200Z,22.70
2018-07-21T06:29:41.050Z,22.80
2018-07-21T06:32:10.026Z,22.80
2018-07-21T06:34:38.804Z,23.00
2018-07-21T06:37:07.590Z,22.90
2018-07-21T06:39:36.469Z,23.10
2018-07-21T06:42:05.345Z,23.20
2018-07-21T06:44:34.158Z,23.10
2018-07-21T06:47:02.950Z,23.10
2018-07-21T06:49:31.881Z,23.20
2018-07-21T06:52:00.743Z,23.20
2018-07-21T06:54:29.743Z,23.40
2018-07-21T06:56:58.515Z,23.60
2018-07-21T06:59:27.346Z,23.90
2018-07-21T07:01:56.550Z,24.10
2018-07-21T07:04:25.489Z,24.50
2018-07-21T07:06:54.306Z,24.60
2018-07-21T07:09:23.088Z,24.60
2018-07-21T07:11:51.898Z,24.60
2018-07-21T07:14:20.654Z,24.50
2018-07-21T07:16:49.443Z,24.40
2018-07-21T07:19:18.228Z,24.30
2018-07-21T07:21:47.058Z,24.50
2018-07-21T07:24:15.846Z,24.70
2018-07-21T07:26:44.664Z,24.80
2018-07-21T07:29:13.449Z,24.60
2018-07-21T07:31:42.309Z,24.90
2018-07-21T07:34:11.082Z,25.30
2018-07-21T07:36:39.963Z,25.20
2018-07-21T07:39:10.104Z,25.20
2018-07-21T07:41:39.303Z,25.30
2018-07-21T07:44:08.402Z,25.20
2018-07-21T07:46:37.369Z,25.60
2018-07-21T07:49:06.482Z,25.10
2018-07-21T07:51:35.398Z,25.10
2018-07-21T07:54:04.174Z,25.00
2018-07-21T07:56:32.932Z,25.00
2018-07-21T07:59:01.714Z,25.40
2018-07-21T08:01:30.507Z,25.80
2018-07-21T08:03:59.294Z,25.90
2018-07-21T08:06:28.082Z,26.10
2018-07-21T08:08:56.894Z,26.00
2018-07-21T08:11:25.691Z,25.70
2018-07-21T08:13:54.490Z,25.80
2018-07-21T08:16:23.550Z,25.70
2018-07-21T08:18:52.342Z,25.90
2018-07-21T08:21:21.150Z,26.00
2018-07-21T08:23:50.015Z,26.70
2018-07-21T08:26:18.802Z,27.20
2018-07-21T08:28:47.598Z,27.60
2018-07-21T08:31:16.392Z,27.50
2018-07-21T08:33:45.250Z,27.50
2018-07-21T08:36:14.026Z,27.50
2018-07-21T08:38:42.819Z,27.00
2018-07-21T08:41:11.883Z,27.20
2018-07-21T08:43:40.671Z,27.80
2018-07-21T08:46:09.513Z,27.50
2018-07-21T08:48:38.305Z,28.10
2018-07-21T08:51:07.145Z,28.30
2018-07-21T08:53:35.958Z,28.40
2018-07-21T08:56:04.750Z,28.60
2018-07-21T08:58:33.826Z,28.30
2018-07-21T09:01:02.608Z,28.20
2018-07-21T09:03:31.389Z,28.00
2018-07-21T09:06:00.183Z,27.80
2018-07-21T09:08:28.985Z,27.30
2018-07-21T09:10:57.846Z,27.20
2018-07-21T09:13:26.642Z,27.60
2018-07-21T09:15:55.429Z,27.90
2018-07-21T09:18:24.208Z,27.70
2018-07-21T09:20:52.984Z,28.00
2018-07-21T09:23:21.761Z,28.10
2018-07-21T09:25:50.534Z,28.20
2018-07-21T09:28:19.332Z,27.80
2018-07-21T09:30:48.506Z,28.30
2018-07-21T09:33:17.290Z,29.00
2018-07-21T09:35:46.186Z,28.40
2018-07-21T09:38:15.010Z,27.70
2018-07-21T09:40:43.851Z,28.00
2018-07-21T09:43:12.914Z,28.00
2018-07-21T09:45:41.690Z,26.50
2018-07-21T09:48:10.530Z,26.60
2018-07-21T09:50:39.318Z,26.30
2018-07-21T09:53:08.502Z,25.50
2018-07-21T09:55:37.345Z,25.20
2018-07-21T09:58:06.152Z,25.40
2018-07-21T10:00:40.194Z,25.10
2018-07-21T10:03:09.271Z,25.00
2018-07-21T10:05:38.027Z,25.10
2018-07-21T10:08:06.857Z,24.90
2018-07-21T10:10:35.643Z,25.30
2018-07-21T10:13:04.442Z,25.40
2018-07-21T10:15:33.261Z,25.60
2018-07-21T10:18:02.086Z,25.40
2018-07-21T10:20:30.912Z,26.00
2018-07-21T10:22:59.724Z,26.90
2018-07-21T10:25:33.762Z,26.30
2018-07-21T10:28:07.830Z,26.10
2018-07-21T10:30:36.738Z,25.90
2018-07-21T10:33:05.647Z,25.80
2018-07-21T10:35:34.380Z,26.40
2018-07-21T10:38:03.258Z,26.20
2018-07-21T10:40:32.126Z,25.70
2018-07-21T10:43:00.910Z,26.10
2018-07-21T10:45:29.694Z,25.70
2018-07-21T10:47:59.017Z,26.20
2018-07-21T10:50:27.839Z,26.10
2018-07-21T10:52:56.630Z,25.80
2018-07-21T10:55:25.446Z,26.20
2018-07-21T10:57:54.237Z,26.40
2018-07-21T11:00:23.141Z,27.10
2018-07-21T11:02:51.924Z,27.10
2018-07-21T11:05:20.732Z,27.00
2018-07-21T11:07:49.514Z,26.40
2018-07-21T11:10:18.326Z,26.70
2018-07-21T11:12:47.139Z,27.30
2018-07-21T11:15:15.989Z,27.60
2018-07-21T11:17:44.775Z,27.80
2018-07-21T11:20:13.663Z,27.30
2018-07-21T11:22:42.399Z,26.90
2018-07-21T11:25:11.237Z,26.70
2018-07-21T11:27:40.067Z,26.60
2018-07-21T11:30:08.874Z,26.20
2018-07-21T11:32:37.655Z,26.20
2018-07-21T11:35:06.516Z,26.00
2018-07-21T11:37:35.326Z,25.80
2018-07-21T11:40:04.466Z,26.10
2018-07-21T11:42:33.256Z,26.60
2018-07-21T11:45:02.101Z,27.00
2018-07-21T11:47:30.910Z,27.60
2018-07-21T11:49:59.710Z,27.60
2018-07-21T11:52:28.487Z,27.80
2018-07-21T11:54:57.271Z,28.10
2018-07-21T11:57:26.067Z,28.40
2018-07-21T11:59:54.866Z,28.60
2018-07-21T12:02:23.666Z,28.20
2018-07-21T12:04:52.438Z,29.00
2018-07-21T12:07:21.535Z,29.20
2018-07-21T12:09:50.334Z,29.60
2018-07-21T12:12:19.148Z,29.40
2018-07-21T12:14:47.944Z,29.30
2018-07-21T12:17:16.742Z,29.80
2018-07-21T12:19:45.504Z,28.70
2018-07-21T12:22:14.273Z,28.30
2018-07-21T12:24:43.037Z,27.70
2018-07-21T12:27:11.853Z,27.60
2018-07-21T12:29:40.682Z,27.70
2018-07-21T12:37:06.554Z,29.10
2018-07-21T12:39:35.343Z,28.90
2018-07-21T12:42:04.155Z,28.80
2018-07-21T12:44:32.953Z,29.00
2018-07-21T12:47:01.707Z,28.20
2018-07-21T12:49:30.532Z,28.40
2018-07-21T12:51:59.713Z,27.70
2018-07-21T12:54:28.474Z,27.80
2018-07-21T12:56:57.266Z,27.70
2018-07-21T12:59:26.062Z,28.40
2018-07-21T13:01:54.865Z,28.60
2018-07-21T13:04:23.634Z,29.50
2018-07-21T13:06:52.945Z,30.20
2018-07-21T13:09:21.705Z,30.80
2018-07-21T13:11:50.510Z,32.00
2018-07-21T13:14:19.293Z,32.70
2018-07-21T13:16:48.098Z,33.20
2018-07-21T13:19:16.898Z,33.50
2018-07-21T13:21:45.710Z,32.10
2018-07-21T13:24:14.535Z,33.50
2018-07-21T13:26:43.710Z,33.30
2018-07-21T13:29:12.793Z,33.10
2018-07-21T13:31:41.709Z,34.10
2018-07-21T13:34:10.801Z,34.30
2018-07-21T13:36:39.626Z,34.10
2018-07-21T13:39:10.895Z,33.50
2018-07-21T13:41:39.745Z,32.20
2018-07-21T13:44:08.859Z,33.40
2018-07-21T13:46:37.675Z,34.30
2018-07-21T13:49:06.501Z,35.90
2018-07-21T13:51:35.282Z,37.00
2018-07-21T13:54:04.128Z,37.20
2018-07-21T13:56:32.922Z,37.30
2018-07-21T13:59:01.980Z,33.80
2018-07-21T14:01:30.763Z,34.00
2018-07-21T14:03:59.542Z,35.80
2018-07-21T14:06:28.338Z,36.90
2018-07-21T14:08:57.110Z,36.80
2018-07-21T14:11:25.949Z,34.90
2018-07-21T14:13:54.806Z,34.40
2018-07-21T14:16:23.887Z,35.30
2018-07-21T14:18:52.684Z,36.10
2018-07-21T14:21:21.454Z,36.70
2018-07-21T14:23:50.308Z,36.30
2018-07-21T14:26:19.059Z,36.10
2018-07-21T14:28:47.838Z,36.30
2018-07-21T14:31:16.634Z,36.90
2018-07-21T14:33:45.404Z,38.00
2018-07-21T14:36:14.373Z,37.60
2018-07-21T14:38:43.390Z,37.70
2018-07-21T14:41:12.262Z,37.40
2018-07-21T14:43:41.082Z,37.00
2018-07-21T14:46:10.146Z,36.20
2018-07-21T14:48:38.978Z,36.00
2018-07-21T14:51:07.822Z,36.60
2018-07-21T14:53:36.601Z,35.90
2018-07-21T14:56:05.453Z,35.30
2018-07-21T14:58:34.258Z,36.50
2018-07-21T15:01:03.118Z,36.70
2018-07-21T15:03:31.906Z,37.50
2018-07-21T15:06:00.695Z,36.30
2018-07-21T15:08:29.463Z,37.10
2018-07-21T15:10:58.246Z,38.30
2018-07-21T15:13:26.991Z,37.90
2018-07-21T15:15:55.806Z,37.20
2018-07-21T15:18:24.594Z,37.20
2018-07-21T15:20:53.386Z,38.40
2018-07-21T15:23:22.190Z,38.80
2018-07-21T15:25:51.021Z,36.70
2018-07-21T15:28:20.142Z,37.10
2018-07-21T15:30:49.772Z,36.90
2018-07-21T15:33:18.863Z,36.10
2018-07-21T15:35:47.674Z,35.40
2018-07-21T15:38:16.474Z,35.70
2018-07-21T15:40:45.251Z,35.50
2018-07-21T15:43:14.078Z,34.80
2018-07-21T15:45:43.207Z,34.70
2018-07-21T15:48:12.326Z,35.20
2018-07-21T15:50:41.106Z,34.40
2018-07-21T15:53:09.889Z,33.80
2018-07-21T15:55:38.924Z,33.90
2018-07-21T15:58:07.659Z,34.50
2018-07-21T16:00:36.464Z,33.50
2018-07-21T16:03:05.318Z,32.10
2018-07-21T16:05:34.403Z,31.30
2018-07-21T16:08:03.631Z,31.90
2018-07-21T16:10:32.470Z,31.70
2018-07-21T16:13:01.310Z,31.20
2018-07-21T16:15:30.115Z,30.90
2018-07-21T16:17:58.935Z,30.70
2018-07-21T16:20:27.738Z,30.80
2018-07-21T16:22:56.543Z,30.70
2018-07-21T16:25:25.334Z,30.30
2018-07-21T16:27:54.175Z,30.60
2018-07-21T16:30:22.949Z,30.80
2018-07-21T16:32:51.734Z,30.80
2018-07-21T16:35:20.502Z,30.20
2018-07-21T16:37:49.292Z,30.10
2018-07-21T16:40:18.184Z,30.60
2018-07-21T16:42:46.988Z,31.00
2018-07-21T16:45:15.842Z,31.10
2018-07-21T16:47:44.679Z,30.60
2018-07-21T16:50:13.550Z,30.60
2018-07-21T16:52:42.837Z,30.40
2018-07-21T16:55:11.645Z,30.70
2018-07-21T16:57:40.471Z,31.30
2018-07-21T17:00:09.319Z,30.50
2018-07-21T17:02:38.148Z,30.00
2018-07-21T17:05:07.020Z,29.80
2018-07-21T17:07:35.791Z,29.90
2018-07-21T17:10:04.846Z,29.90
2018-07-21T17:12:33.773Z,29.80
2018-07-21T17:15:02.558Z,29.90
2018-07-21T17:17:31.354Z,29.00
2018-07-21T17:20:00.990Z,28.60
2018-07-21T17:22:29.771Z,28.70
2018-07-21T17:24:58.560Z,28.10
2018-07-21T17:27:27.610Z,27.80
2018-07-21T17:29:56.500Z,27.60
2018-07-21T17:32:25.219Z,27.20
2018-07-21T17:34:54.037Z,26.90
2018-07-21T17:37:22.824Z,26.80
2018-07-21T17:39:51.885Z,26.50
2018-07-21T17:42:21.022Z,26.50
2018-07-21T17:44:49.831Z,26.40
2018-07-21T17:47:18.566Z,26.50
2018-07-21T17:49:47.454Z,26.90
2018-07-21T17:52:16.334Z,26.90
2018-07-21T17:54:45.166Z,26.60
2018-07-21T17:57:13.977Z,26.30
2018-07-21T17:59:42.729Z,26.10
2018-07-21T18:02:11.520Z,25.90
2018-07-21T18:04:40.574Z,25.80
2018-07-21T18:07:09.478Z,25.70
2018-07-21T18:09:38.274Z,25.60
2018-07-21T18:12:07.491Z,25.40
2018-07-21T18:14:36.566Z,25.30
2018-07-21T18:17:05.476Z,25.20
2018-07-21T18:19:34.555Z,25.00
2018-07-21T18:22:03.392Z,24.90
2018-07-21T18:24:32.265Z,24.70
2018-07-21T18:27:01.099Z,24.50
2018-07-21T18:29:29.894Z,24.30
2018-07-21T18:31:58.766Z,24.20
2018-07-21T18:34:27.589Z,24.00
2018-07-21T18:36:56.381Z,23.90
2018-07-21T18:39:25.198Z,23.80
2018-07-21T18:41:54.010Z,23.80
2018-07-21T18:44:22.792Z,23.70
2018-07-21T18:46:51.611Z,23.60
2018-07-21T18:49:20.454Z,23.50
2018-07-21T18:51:49.579Z,23.40
2018-07-21T18:54:18.416Z,23.30
2018-07-21T18:56:47.258Z,23.30
2018-07-21T18:59:16.040Z,23.20
2018-07-21T19:01:44.894Z,23.20
2018-07-21T19:04:13.950Z,23.10
2018-07-21T19:06:42.796Z,23.10
2018-07-21T19:09:11.574Z,23.10
2018-07-21T19:11:40.349Z,23.00
2018-07-21T19:14:09.201Z,22.90
2018-07-21T19:16:40.990Z,22.90
2018-07-21T19:19:09.796Z,22.90
2018-07-21T19:21:38.693Z,22.90
2018-07-21T19:24:07.472Z,22.90
2018-07-21T19:26:41.545Z,22.80
2018-07-21T19:29:10.630Z,22.80
2018-07-21T19:31:43.007Z,22.80
2018-07-21T19:34:11.811Z,22.70
2018-07-21T19:36:40.602Z,22.70
2018-07-21T19:39:09.627Z,22.60
2018-07-21T19:41:43.535Z,22.60
2018-07-21T19:46:40.984Z,22.50
2018-07-21T19:49:09.724Z,22.50
2018-07-21T19:51:39.146Z,22.40
2018-07-21T19:54:07.958Z,22.40
2018-07-21T19:56:36.791Z,22.30
2018-07-21T19:59:05.674Z,22.30
2018-07-21T20:04:03.219Z,22.20
2018-07-21T20:06:32.010Z,22.20
2018-07-21T20:09:02.830Z,22.10
2018-07-21T20:11:31.983Z,22.10
2018-07-21T20:14:00.747Z,22.10
2018-07-21T20:16:29.978Z,22.10
2018-07-21T20:18:58.777Z,22.00
2018-07-21T20:21:27.956Z,22.00
2018-07-21T20:23:56.800Z,21.90
2018-07-21T20:26:25.611Z,21.90
2018-07-21T20:28:54.843Z,21.80
2018-07-21T20:31:23.705Z,21.80
2018-07-21T20:33:52.499Z,21.80
2018-07-21T20:36:21.866Z,21.70
2018-07-21T20:38:51.007Z,21.70
2018-07-21T20:41:19.897Z,21.70
2018-07-21T20:43:48.813Z,21.60
2018-07-21T20:46:17.588Z,21.50
2018-07-21T20:48:46.386Z,21.50
2018-07-21T20:51:15.520Z,21.40
2018-07-21T20:53:44.349Z,21.40
2018-07-21T20:56:13.431Z,21.30
2018-07-21T20:58:42.594Z,21.40
2018-07-21T21:03:40.399Z,21.30
2018-07-21T21:06:09.242Z,21.30
2018-07-21T21:08:37.952Z,21.20
2018-07-21T21:11:07.002Z,21.20
2018-07-21T21:13:35.809Z,21.20
2018-07-21T21:16:04.623Z,21.10
2018-07-21T21:18:33.430Z,21.10
2018-07-21T21:21:02.240Z,21.00
2018-07-21T21:23:31.318Z,21.00
2018-07-21T21:26:00.087Z,21.00
2018-07-21T21:28:29.181Z,20.90
2018-07-21T21:30:58.039Z,20.90
2018-07-21T21:33:26.810Z,20.90
2018-07-21T21:35:55.590Z,20.90
2018-07-21T21:38:24.378Z,20.90
2018-07-21T21:40:53.178Z,20.90
2018-07-21T21:43:21.974Z,20.90
2018-07-21T21:45:50.813Z,20.90
2018-07-21T21:48:19.733Z,20.90
2018-07-21T21:50:48.604Z,20.80
2018-07-21T21:53:17.459Z,20.70
2018-07-21T21:55:46.566Z,20.70
2018-07-21T21:58:15.436Z,20.60
2018-07-21T22:00:58.999Z,20.60
2018-07-21T22:03:29.443Z,20.70
2018-07-21T22:05:58.903Z,20.70
2018-07-21T22:08:27.784Z,20.80
2018-07-21T22:13:25.898Z,20.80
2018-07-21T22:15:54.696Z,20.90
2018-07-21T22:18:23.544Z,21.10
2018-07-21T22:20:52.530Z,21.20
2018-07-21T22:23:21.454Z,21.40
2018-07-21T22:25:50.403Z,21.40
2018-07-21T22:28:19.606Z,21.40
2018-07-21T22:30:48.439Z,21.40
2018-07-21T22:33:17.286Z,21.40
2018-07-21T22:35:46.186Z,21.50
2018-07-21T22:38:15.058Z,21.50
2018-07-21T22:40:43.902Z,21.50
2018-07-21T22:43:12.704Z,21.70
2018-07-21T22:45:41.562Z,21.60
2018-07-21T22:48:10.426Z,21.70
2018-07-21T22:50:39.283Z,21.70
2018-07-21T22:53:08.154Z,19.70
2018-07-21T22:55:37.044Z,21.70
2018-07-21T22:58:06.137Z,21.60
2018-07-21T23:00:34.914Z,21.60
2018-07-21T23:03:03.774Z,21.50
2018-07-21T23:05:32.574Z,21.50
2018-07-21T23:08:01.349Z,21.50
2018-07-21T23:10:30.198Z,21.50
2018-07-21T23:12:59.019Z,21.50
2018-07-21T23:15:27.879Z,21.40
2018-07-21T23:17:56.714Z,21.50
2018-07-21T23:20:25.514Z,21.50
2018-07-21T23:22:54.322Z,21.50
2018-07-21T23:25:23.101Z,21.50
2018-07-21T23:27:52.013Z,21.40
2018-07-21T23:30:20.866Z,21.40
2018-07-21T23:32:49.649Z,21.40
2018-07-21T23:35:18.422Z,21.40
2018-07-21T23:37:47.263Z,21.30
2018-07-21T23:40:16.062Z,21.30
2018-07-21T23:42:44.850Z,21.30
2018-07-21T23:45:13.642Z,21.30
2018-07-21T23:47:42.430Z,21.30
2018-07-21T23:50:11.274Z,21.20
2018-07-21T23:52:40.038Z,21.20
2018-07-21T23:55:09.266Z,21.20
2018-07-21T23:57:38.718Z,21.10
